DAOR

Béchar Boudghene Ben Ali Lotfi Airport

Béchar, Algeria
METAR DAOR 260400Z 17004KT CAVOK 22/M02 Q1012
Observed Flight Rules
May-26 @ 04:00 UTC (17 minutes ago) Visual Flight Rules
Wind Visibility Clouds
170° at 4 knots 10,000+ meters
  • Clear skies
Temperatures Readings
Current 22°C / 72°F
Dewpoint -2°C / 28°F
Humidity 20%
Altimeter 29.88" Hg
Pressure 1012 hPa
Elevation 773
METAR DAOR 260400Z 17004KT CAVOK 22/M02 Q1012
Observed Flight Rules
May-26 @ 04:00 UTC
(17 minutes ago)
VFR
Wind Visibility
170° at 4 knots 10,000+ meters
Clouds
  • Clear skies
Temperature Dewpoint
22°C / 72°F -2°C / 28°F
Humidity Altimeter Pressure
20% 29.88" Hg 1012 hPa